weather.gov     
National Weather Service

Terminal Aerodrome Forecast
NWS Homepage
This page is being discontinued on March 12, 2014.
The same data is available at this site. Please update your bookmarks.
Thank you, and we apologize for the inconvenience.
Please send an email to SR-SRH.Webmaster@noaa.gov with any concerns.


Current Version
Previous Version:    01  02  03  04  05  06  07  08  09  10  11  12  13  14  15  16  17  18  19  20  21  22  23  24  25  26  27  28  29  30  
   31  32  33  34  35  36  37  38  39  40  41  42  43  44  45  
[Printable]
932
FTUS42 KJAX 222300
TAFGNV
TAF
KGNV 222334Z 2300/2324 13003KT P6SM VCTS SCT030CB BKN090 OVC110
      TEMPO 2300/2302 5SM TSRA BKN025CB
     FM230300 15003KT P6SM VCSH SCT025 SCT100
     FM230900 12003KT 4SM BR VCSH SCT010 BKN100
     FM231400 07005KT P6SM SCT015 BKN040
     FM231800 06007KT P6SM SCT035 SCT150=


U.S. Dept. of Commerce
NOAA National Weather Service
1325 East West Highway
Silver Spring, MD 20910
E-mail: w-nws.webmaster@noaa.gov
Page last modified: May 16, 2007
NATIONAL WEATHER SERVICE: for Safety, for Work, for Fun - FOR LIFE